Time;durP1;ratioP1;P1;durP2;ratioP2;P2;SDS_P1;SDS_P2;PMS_P1;PMS_P2;Temp;Humidity;BMP_temperature;BMP_pressure;BME280_temperature;BME280_humidity;BME280_pressure;Samples;Min_cycle;Max_cycle;Signal;HPM_P1;HPM_P2
2024/01/10 00:02:16;;;;;;;7.43;3.63;;;;;;;-5.73;46.83;101186.88;10515976;28;20227;-62
2024/01/10 00:07:18;;;;;;;7.70;3.97;;;;;;;-5.74;46.22;101184.25;10516887;28;20070;-62
2024/01/10 00:12:20;;;;;;;9.30;4.53;;;;;;;-5.92;46.18;101171.91;10516528;28;20389;-62
2024/01/10 00:17:22;;;;;;;12.82;4.95;;;;;;;-5.88;46.92;101163.53;10516522;28;20417;-62
2024/01/10 00:22:24;;;;;;;9.00;5.07;;;;;;;-5.97;46.33;101165.81;10515987;28;20385;-62
2024/01/10 00:27:26;;;;;;;11.23;5.00;;;;;;;-5.89;46.42;101166.88;10532257;28;20196;-64
2024/01/10 00:32:28;;;;;;;9.45;4.28;;;;;;;-6.00;46.25;101162.34;10516541;28;20132;-62
2024/01/10 00:37:30;;;;;;;9.65;4.15;;;;;;;-5.99;46.38;101167.47;10515451;28;20047;-63
2024/01/10 00:42:32;;;;;;;10.55;3.83;;;;;;;-5.90;46.75;101154.13;10514521;28;20143;-63
2024/01/10 00:47:34;;;;;;;13.95;4.90;;;;;;;-5.95;46.92;101154.00;10515816;28;20040;-62
2024/01/10 00:52:36;;;;;;;9.38;4.10;;;;;;;-6.08;47.16;101146.88;10516002;28;20085;-62
2024/01/10 00:57:38;;;;;;;9.48;4.22;;;;;;;-6.16;47.17;101143.25;10515745;28;20068;-63
2024/01/10 01:02:40;;;;;;;13.82;4.53;;;;;;;-6.19;47.39;101138.06;10530588;28;20040;-62
2024/01/10 01:07:43;;;;;;;15.55;5.32;;;;;;;-6.44;47.89;101128.91;10515745;28;20496;-63
2024/01/10 01:12:45;;;;;;;12.32;5.68;;;;;;;-6.26;47.63;101131.13;10515397;28;20730;-63
2024/01/10 01:17:47;;;;;;;11.45;5.60;;;;;;;-6.39;47.91;101134.13;10515947;28;20060;-63
2024/01/10 01:22:49;;;;;;;13.35;5.38;;;;;;;-6.36;47.98;101131.69;10517465;28;20914;-62
2024/01/10 01:27:51;;;;;;;11.50;5.03;;;;;;;-6.39;48.15;101134.13;10522401;28;20043;-63
2024/01/10 01:32:53;;;;;;;15.10;6.25;;;;;;;-6.47;48.37;101133.06;10522771;28;20048;-62
2024/01/10 01:37:55;;;;;;;10.23;4.95;;;;;;;-6.29;48.33;101144.63;10522172;28;20064;-63
2024/01/10 01:42:58;;;;;;;12.75;4.90;;;;;;;-6.25;48.46;101143.88;10522419;28;20044;-62
2024/01/10 01:48:01;;;;;;;12.57;5.25;;;;;;;-6.24;48.21;101140.53;10522124;28;20044;-62
2024/01/10 01:53:03;;;;;;;13.73;4.93;;;;;;;-6.25;48.12;101135.38;10520753;28;20134;-62
2024/01/10 01:58:05;;;;;;;13.05;5.13;;;;;;;-6.16;48.67;101143.25;10522065;28;20055;-62
2024/01/10 02:03:09;;;;;;;16.38;6.20;;;;;;;-6.09;48.68;101144.28;10502619;28;20048;-62
2024/01/10 02:08:11;;;;;;;14.05;5.88;;;;;;;-6.07;48.48;101143.50;10521247;28;20047;-63
2024/01/10 02:13:15;;;;;;;13.75;4.55;;;;;;;-6.11;48.91;101141.69;10502483;28;20139;-62
2024/01/10 02:18:17;;;;;;;9.13;4.75;;;;;;;-6.11;48.89;101131.50;10521504;28;20160;-63
2024/01/10 02:23:19;;;;;;;9.32;4.60;;;;;;;-6.12;49.03;101127.25;10520159;28;20043;-63
2024/01/10 02:28:23;;;;;;;8.50;5.10;;;;;;;-6.10;48.73;101120.50;10520199;28;20050;-63
2024/01/10 02:33:25;;;;;;;14.35;5.82;;;;;;;-6.16;49.18;101120.34;10520494;28;20724;-63
2024/01/10 02:38:27;;;;;;;12.85;5.13;;;;;;;-6.14;48.93;101115.28;10518791;28;20512;-64
2024/01/10 02:43:29;;;;;;;12.27;5.22;;;;;;;-6.27;48.71;101109.88;10519601;28;20074;-62
2024/01/10 02:48:31;;;;;;;12.00;4.43;;;;;;;-6.31;49.15;101110.63;10519429;28;20126;-64
2024/01/10 02:53:33;;;;;;;12.38;6.03;;;;;;;-6.24;49.31;101120.16;10519179;28;20047;-63
2024/01/10 02:58:35;;;;;;;11.27;5.28;;;;;;;-6.27;49.15;101120.06;10519200;28;20139;-63
2024/01/10 03:03:37;;;;;;;15.07;5.00;;;;;;;-6.34;48.95;101118.16;10518824;28;20986;-62
2024/01/10 03:08:39;;;;;;;11.43;6.03;;;;;;;-6.48;49.36;101109.28;10519238;28;20044;-63
2024/01/10 03:13:45;;;;;;;15.93;5.60;;;;;;;-6.52;49.24;101104.94;10518779;28;20067;-63
2024/01/10 03:18:47;;;;;;;10.52;5.38;;;;;;;-6.48;49.41;101108.44;10500456;28;20050;-63
2024/01/10 03:23:53;;;;;;;10.77;5.35;;;;;;;-6.44;49.68;101102.63;10518958;28;20044;-63
2024/01/10 03:28:54;;;;;;;12.07;4.43;;;;;;;-6.39;49.70;101104.47;10531996;27;20040;-64
2024/01/10 03:33:58;;;;;;;8.80;4.28;;;;;;;-6.47;49.98;101094.91;10517625;28;20432;-63
2024/01/10 03:39:00;;;;;;;17.50;5.35;;;;;;;-6.42;49.51;101094.19;10517355;28;20083;-64
2024/01/10 03:44:02;;;;;;;10.32;4.95;;;;;;;-6.42;50.22;101095.91;10516935;28;20098;-63
2024/01/10 03:49:04;;;;;;;10.55;4.95;;;;;;;-6.35;50.10;101096.09;10517237;28;20043;-63
2024/01/10 03:54:06;;;;;;;12.23;5.32;;;;;;;-6.35;49.68;101091.00;10517750;28;20036;-62
2024/01/10 03:59:08;;;;;;;10.02;5.47;;;;;;;-6.41;49.70;101079.78;10516492;28;20048;-64
2024/01/10 04:04:10;;;;;;;11.60;6.05;;;;;;;-6.48;49.97;101085.56;10516189;28;20040;-63
2024/01/10 04:09:12;;;;;;;17.77;6.10;;;;;;;-6.41;50.26;101090.84;10498929;28;20140;-63
2024/01/10 04:14:15;;;;;;;10.52;4.35;;;;;;;-6.38;50.33;101095.16;10516373;28;20451;-63
2024/01/10 04:19:17;;;;;;;14.90;5.95;;;;;;;-6.44;49.99;101103.47;10498361;28;20054;-62
2024/01/10 04:24:19;;;;;;;14.20;5.93;;;;;;;-6.50;50.28;101110.09;10531806;28;20047;-63
2024/01/10 04:29:21;;;;;;;18.58;6.38;;;;;;;-6.44;50.51;101110.25;10516524;28;20538;-63
2024/01/10 04:34:24;;;;;;;16.77;5.57;;;;;;;-6.39;50.44;101109.56;10498416;28;20051;-63
2024/01/10 04:39:26;;;;;;;13.02;6.00;;;;;;;-6.36;50.43;101106.25;10515584;28;20079;-63
2024/01/10 04:44:28;;;;;;;8.90;5.05;;;;;;;-6.37;50.51;101107.03;10515136;28;20159;-62
2024/01/10 04:49:30;;;;;;;10.93;4.50;;;;;;;-6.49;50.37;101101.63;10479915;28;20048;-64
2024/01/10 04:54:32;;;;;;;13.05;5.43;;;;;;;-6.67;50.49;101101.13;10516069;28;20054;-63
2024/01/10 04:59:34;;;;;;;13.35;5.78;;;;;;;-6.72;50.54;101108.63;10521017;28;20048;-63
2024/01/10 05:04:36;;;;;;;11.38;4.90;;;;;;;-6.69;50.70;101105.31;10506651;28;20139;-63
2024/01/10 05:09:38;;;;;;;15.40;5.88;;;;;;;-6.72;51.07;101097.56;10539839;27;20036;-62
2024/01/10 05:14:40;;;;;;;13.40;5.80;;;;;;;-6.78;51.34;101099.94;10523104;28;20040;-62
2024/01/10 05:19:42;;;;;;;13.23;5.65;;;;;;;-6.88;51.27;101090.34;10523491;28;20191;-63
2024/01/10 05:24:44;;;;;;;13.40;6.07;;;;;;;-6.96;51.37;101091.78;10504979;28;20052;-63
2024/01/10 05:29:47;;;;;;;10.73;4.97;;;;;;;-6.91;51.39;101077.53;10499893;28;20046;-63
2024/01/10 05:34:49;;;;;;;13.82;5.32;;;;;;;-6.87;51.35;101079.34;10522595;28;20602;-64
2024/01/10 05:39:51;;;;;;;9.50;4.57;;;;;;;-6.85;51.31;101081.13;10521891;28;20051;-63
2024/01/10 05:44:53;;;;;;;13.50;5.45;;;;;;;-6.73;51.35;101086.56;10521838;28;20046;-63
2024/01/10 05:49:55;;;;;;;19.67;5.05;;;;;;;-6.62;51.17;101085.16;10521632;28;20127;-63
2024/01/10 05:54:57;;;;;;;16.52;5.78;;;;;;;-6.47;51.27;101089.81;10521511;28;20895;-63
2024/01/10 05:59:59;;;;;;;19.02;6.35;;;;;;;-6.40;51.09;101086.63;10501908;28;20075;-64
2024/01/10 06:05:04;;;;;;;14.50;5.93;;;;;;;-6.41;50.83;101092.50;10521183;28;20040;-64
2024/01/10 06:10:09;;;;;;;11.80;6.18;;;;;;;-6.39;51.11;101088.31;10520191;28;20043;-63
2024/01/10 06:15:11;;;;;;;13.15;5.72;;;;;;;-6.25;50.86;101089.53;10519078;28;20426;-63
2024/01/10 06:20:13;;;;;;;13.98;5.45;;;;;;;-6.10;50.60;101089.97;10520496;28;20047;-63
2024/01/10 06:25:16;;;;;;;11.93;5.10;;;;;;;-6.21;50.58;101084.59;10519932;28;20488;-63
2024/01/10 06:30:18;;;;;;;10.98;5.53;;;;;;;-6.36;50.61;101084.16;10519634;28;20397;-63
2024/01/10 06:35:20;;;;;;;18.52;6.20;;;;;;;-6.40;50.55;101090.00;10518835;28;20052;-63
2024/01/10 06:40:22;;;;;;;10.13;5.88;;;;;;;-6.43;50.71;101086.53;10499239;28;20051;-62
2024/01/10 06:45:24;;;;;;;12.75;5.40;;;;;;;-6.34;51.10;101086.78;10519847;28;20048;-63
2024/01/10 06:50:26;;;;;;;16.35;6.25;;;;;;;-6.39;51.03;101088.31;10518794;28;20050;-63
2024/01/10 06:55:29;;;;;;;14.80;6.00;;;;;;;-6.41;50.96;101087.44;10518711;28;20055;-63
2024/01/10 07:00:31;;;;;;;13.57;5.75;;;;;;;-6.27;50.95;101084.44;10516671;28;20044;-61
2024/01/10 07:05:33;;;;;;;18.17;6.80;;;;;;;-6.22;51.17;101094.72;10519615;28;20125;-62
2024/01/10 07:10:35;;;;;;;15.65;6.00;;;;;;;-6.19;51.01;101099.88;10500290;28;20136;-62
2024/01/10 07:15:38;;;;;;;10.77;4.85;;;;;;;-6.19;51.37;101092.25;10518464;28;20052;-62
2024/01/10 07:20:40;;;;;;;17.60;5.78;;;;;;;-6.12;51.08;101101.78;10516938;28;20158;-63
2024/01/10 07:25:42;;;;;;;11.00;5.82;;;;;;;-6.06;51.05;101112.13;10518230;28;20052;-63
2024/01/10 07:30:44;;;;;;;14.68;6.90;;;;;;;-5.95;50.95;101109.84;10518140;28;20139;-62
2024/01/10 07:35:46;;;;;;;14.48;6.07;;;;;;;-5.99;50.70;101111.44;10498608;28;20563;-62
2024/01/10 07:40:48;;;;;;;17.02;5.75;;;;;;;-6.01;50.82;101118.19;10516830;28;20066;-63
2024/01/10 07:45:50;;;;;;;11.27;4.53;;;;;;;-6.05;50.58;101126.56;10529116;28;20079;-63
2024/01/10 07:50:52;;;;;;;17.70;6.20;;;;;;;-6.02;50.89;101126.66;10500065;28;20113;-62
2024/01/10 07:55:54;;;;;;;14.80;5.82;;;;;;;-6.12;50.70;101129.78;10516758;28;20143;-62
2024/01/10 08:00:56;;;;;;;13.80;5.82;;;;;;;-6.00;50.70;101130.09;10516335;28;20462;-62
2024/01/10 08:05:58;;;;;;;15.00;6.70;;;;;;;-5.99;50.44;101131.81;10516440;28;20059;-63
2024/01/10 08:11:01;;;;;;;11.35;5.55;;;;;;;-6.04;50.55;101146.13;10531638;27;20138;-63
2024/01/10 08:16:03;;;;;;;16.55;6.97;;;;;;;-6.10;50.38;101147.66;10515914;28;20400;-62
2024/01/10 08:21:05;;;;;;;13.98;5.63;;;;;;;-5.96;50.20;101148.88;10497410;28;20468;-62
2024/01/10 08:26:11;;;;;;;17.33;6.28;;;;;;;-5.83;50.20;101150.91;10515260;28;20080;-68
2024/01/10 08:31:16;;;;;;;18.52;6.13;;;;;;;-5.53;49.97;101151.66;10515487;28;20136;-69
2024/01/10 08:36:19;;;;;;;15.48;6.50;;;;;;;-5.60;49.46;101152.34;10515755;28;20056;-69
2024/01/10 08:41:20;;;;;;;12.85;5.60;;;;;;;-5.52;49.34;101154.25;10513406;28;20059;-69
2024/01/10 08:46:26;;;;;;;18.63;6.28;;;;;;;-5.43;49.37;101146.84;10515686;28;20052;-68
2024/01/10 08:51:28;;;;;;;16.40;6.22;;;;;;;-5.38;49.33;101160.53;10514697;28;20091;-69
2024/01/10 08:56:30;;;;;;;15.40;6.47;;;;;;;-5.31;49.04;101153.03;10515882;28;20044;-69
2024/01/10 09:01:32;;;;;;;17.35;5.65;;;;;;;-5.28;49.03;101164.19;10515750;28;20051;-68
2024/01/10 09:06:35;;;;;;;13.18;5.78;;;;;;;-4.98;49.04;101157.22;10481158;28;20364;-68
2024/01/10 09:11:37;;;;;;;19.77;7.22;;;;;;;-4.72;48.25;101165.44;10515198;28;20047;-68
2024/01/10 09:16:43;;;;;;;15.43;5.25;;;;;;;-4.73;48.43;101164.56;10515975;28;20052;-68
2024/01/10 09:21:45;;;;;;;16.20;7.88;;;;;;;-4.94;48.49;101170.91;10514240;28;20064;-67
2024/01/10 09:26:48;;;;;;;20.30;7.05;;;;;;;-4.93;48.40;101165.00;10515852;28;20133;-67
2024/01/10 09:31:50;;;;;;;13.38;6.85;;;;;;;-4.71;48.37;101167.19;10497506;28;20040;-67
2024/01/10 09:36:52;;;;;;;15.38;6.63;;;;;;;-4.30;48.20;101163.75;10496932;28;20052;-67
2024/01/10 09:41:54;;;;;;;15.65;6.78;;;;;;;-3.96;47.74;101162.72;10514373;28;20188;-67
2024/01/10 09:46:56;;;;;;;16.83;6.45;;;;;;;-4.08;47.31;101158.25;10522158;28;20507;-69
2024/01/10 09:52:02;;;;;;;19.08;6.63;;;;;;;-3.79;47.08;101164.72;10521912;28;20128;-68
2024/01/10 09:57:05;;;;;;;16.58;5.78;;;;;;;-3.79;47.22;101153.63;10502527;28;20084;-68
2024/01/10 10:02:08;;;;;;;17.55;6.45;;;;;;;-3.84;46.98;101158.69;10521484;28;20067;-68
2024/01/10 10:07:10;;;;;;;16.40;7.45;;;;;;;-3.90;46.80;101158.59;10520817;28;20052;-68
2024/01/10 10:12:12;;;;;;;15.88;6.53;;;;;;;-3.64;46.98;101153.03;10520470;28;20036;-68
2024/01/10 10:17:18;;;;;;;17.48;6.65;;;;;;;-3.74;46.98;101149.47;10520304;28;20395;-68
2024/01/10 10:22:20;;;;;;;16.65;7.28;;;;;;;-3.49;46.86;101140.53;10519940;28;20044;-68
2024/01/10 10:27:22;;;;;;;14.57;5.95;;;;;;;-3.49;46.55;101141.38;10520198;28;20067;-68
2024/01/10 10:32:24;;;;;;;13.55;5.90;;;;;;;-3.46;46.67;101140.56;10519868;28;20040;-68
2024/01/10 10:37:26;;;;;;;15.13;7.43;;;;;;;-3.42;46.88;101135.53;10519526;28;20052;-67
2024/01/10 10:42:30;;;;;;;18.50;7.10;;;;;;;-3.51;46.87;101137.09;10519894;28;20496;-69
2024/01/10 10:47:38;;;;;;;17.83;6.85;;;;;;;-3.39;45.96;101129.59;10499084;28;20040;-68
2024/01/10 10:52:48;;;;;;;18.02;6.80;;;;;;;-3.49;46.30;101136.28;10519455;28;20067;-68
2024/01/10 10:57:52;;;;;;;13.68;6.18;;;;;;;-3.46;46.28;101130.31;10516879;28;20733;-68
2024/01/10 11:03:11;;;;;;;15.30;6.38;;;;;;;-3.29;46.69;101127.22;10518468;28;20093;-67
2024/01/10 11:08:16;;;;;;;14.43;5.32;;;;;;;-3.22;46.23;101133.28;10517813;28;20138;-67
2024/01/10 11:13:42;;;;;;;20.42;6.15;;;;;;;-3.08;45.45;101126.66;10498914;28;20048;-69
2024/01/10 11:18:53;;;;;;;14.60;6.20;;;;;;;-3.15;46.44;101127.41;10515965;28;20055;-68
2024/01/10 11:23:59;;;;;;;15.05;6.78;;;;;;;-2.79;46.21;101120.22;10514776;28;20043;-68
2024/01/10 11:29:01;;;;;;;10.85;4.65;;;;;;;-2.69;45.36;101110.97;10515375;28;20043;-68
2024/01/10 11:34:06;;;;;;;17.30;7.10;;;;;;;-2.66;45.70;101111.00;10515560;28;20097;-67
2024/01/10 11:39:12;;;;;;;15.52;5.70;;;;;;;-2.26;45.37;101115.75;10514294;28;20755;-68
2024/01/10 11:44:22;;;;;;;15.38;6.18;;;;;;;-2.25;44.51;101107.22;10496796;28;20044;-68
2024/01/10 11:49:25;;;;;;;16.52;7.28;;;;;;;-2.36;45.50;101104.53;10513168;28;20158;-68
2024/01/10 11:54:43;;;;;;;14.95;5.78;;;;;;;-2.14;44.66;101095.38;10514189;28;20298;-67
2024/01/10 11:59:45;;;;;;;16.60;6.03;;;;;;;-2.10;43.46;101092.00;10514316;28;20079;-67
2024/01/10 12:04:48;;;;;;;14.55;6.55;;;;;;;-2.10;44.89;101097.97;10514344;28;20047;-68
2024/01/10 12:09:50;;;;;;;14.70;5.85;;;;;;;-2.20;44.52;101090.19;10513951;28;20040;-68
2024/01/10 12:14:52;;;;;;;14.73;6.65;;;;;;;-2.16;44.90;101087.66;10495545;28;20313;-68
2024/01/10 12:19:54;;;;;;;17.60;7.57;;;;;;;-2.25;44.82;101077.34;10513365;28;20741;-68
2024/01/10 12:25:04;;;;;;;12.73;6.55;;;;;;;-2.35;44.49;101084.91;10513440;28;20556;-68
2024/01/10 12:30:07;;;;;;;13.23;5.30;;;;;;;-1.84;44.79;101070.03;10531600;28;20044;-68
2024/01/10 12:35:09;;;;;;;19.15;6.07;;;;;;;-1.47;43.28;101073.75;10515660;28;20043;-69
2024/01/10 12:40:11;;;;;;;13.82;6.55;;;;;;;-1.44;44.24;101074.63;10513711;28;20059;-68
2024/01/10 12:45:25;;;;;;;23.88;7.60;;;;;;;-1.26;43.01;101074.72;10498235;28;20067;-69
2024/01/10 12:50:27;;;;;;;16.90;6.18;;;;;;;-1.37;43.43;101078.94;10515776;28;20127;-68
2024/01/10 12:55:29;;;;;;;13.90;6.13;;;;;;;-1.52;43.07;101076.28;10513950;28;20148;-69
2024/01/10 13:00:34;;;;;;;12.48;5.90;;;;;;;-1.45;43.73;101079.75;10493785;28;20048;-68
2024/01/10 13:05:37;;;;;;;17.73;7.65;;;;;;;-1.51;42.70;101074.56;10513255;28;20364;-69
2024/01/10 13:10:39;;;;;;;17.80;6.78;;;;;;;-1.54;42.97;101061.72;10514509;28;20044;-69
2024/01/10 13:15:42;;;;;;;15.40;4.90;;;;;;;-1.45;43.13;101061.78;10514733;28;20047;-69
2024/01/10 13:20:45;;;;;;;16.25;6.75;;;;;;;-1.17;43.31;101055.97;10520481;28;20619;-68
2024/01/10 13:25:47;;;;;;;15.50;7.38;;;;;;;-1.33;42.21;101054.16;10522328;28;20466;-69
2024/01/10 13:30:50;;;;;;;14.13;6.13;;;;;;;-1.31;42.92;101058.44;10520778;28;20052;-69
2024/01/10 13:35:53;;;;;;;15.88;5.93;;;;;;;-1.08;43.27;101057.75;10538603;27;20048;-68
2024/01/10 13:40:55;;;;;;;13.77;6.13;;;;;;;-0.83;42.50;101065.56;10521675;28;20059;-69
2024/01/10 13:45:57;;;;;;;16.65;6.70;;;;;;;-0.79;42.09;101059.56;10535619;28;20404;-68
2024/01/10 13:50:59;;;;;;;13.80;6.30;;;;;;;-0.69;42.27;101055.31;10521628;28;20040;-68
2024/01/10 13:56:01;;;;;;;14.30;6.18;;;;;;;-0.64;42.38;101057.06;10503404;28;20091;-69
2024/01/10 14:01:03;;;;;;;17.08;6.55;;;;;;;-0.73;42.91;101056.16;10520445;28;20148;-68
2024/01/10 14:06:05;;;;;;;15.95;6.28;;;;;;;-1.01;42.85;101044.06;10520931;28;20044;-69
2024/01/10 14:11:08;;;;;;;16.23;7.10;;;;;;;-1.03;42.96;101051.75;10503034;28;20048;-69
2024/01/10 14:16:10;;;;;;;14.43;5.90;;;;;;;-1.22;43.02;101044.81;10520567;28;20032;-68
2024/01/10 14:21:12;;;;;;;17.15;6.88;;;;;;;-1.12;43.39;101051.72;10536279;27;20042;-69
2024/01/10 14:26:15;;;;;;;14.27;5.40;;;;;;;-1.26;42.50;101056.78;10486232;28;20040;-69
2024/01/10 14:31:17;;;;;;;16.60;6.35;;;;;;;-1.39;43.50;101049.84;10518063;28;20036;-69
2024/01/10 14:36:34;;;;;;;20.63;5.68;;;;;;;-1.41;43.67;101055.84;10519496;28;20518;-69
2024/01/10 14:41:36;;;;;;;15.18;6.57;;;;;;;-1.41;43.48;101058.41;10519425;28;20044;-67
2024/01/10 14:46:38;;;;;;;16.75;6.55;;;;;;;-1.45;43.83;101054.09;10498348;28;20051;-68
2024/01/10 14:51:40;;;;;;;13.65;5.85;;;;;;;-1.50;43.80;101055.75;10519362;28;20147;-68
2024/01/10 14:56:43;;;;;;;12.68;5.88;;;;;;;-1.62;43.86;101065.94;10518474;28;20066;-68
2024/01/10 15:01:46;;;;;;;11.52;5.22;;;;;;;-1.82;44.02;101072.59;10516571;28;20119;-70
2024/01/10 15:06:48;;;;;;;15.07;6.10;;;;;;;-1.90;44.21;101074.25;10516360;28;20357;-69
2024/01/10 15:11:50;;;;;;;16.45;5.78;;;;;;;-1.86;44.26;101078.56;10516412;28;20515;-67
2024/01/10 15:16:53;;;;;;;14.90;5.60;;;;;;;-1.93;44.37;101087.03;10495994;28;20139;-69
2024/01/10 15:21:55;;;;;;;14.93;6.00;;;;;;;-2.01;44.73;101100.66;10481577;28;20403;-69
2024/01/10 15:27:08;;;;;;;16.38;5.93;;;;;;;-2.06;44.60;101107.41;10497367;28;20051;-68
2024/01/10 15:32:16;;;;;;;13.32;5.80;;;;;;;-2.18;44.89;101114.13;10513986;28;20122;-69
2024/01/10 15:37:24;;;;;;;17.13;5.18;;;;;;;-2.22;45.05;101113.22;10496925;28;20507;-68
2024/01/10 15:42:27;;;;;;;13.18;5.38;;;;;;;-2.39;45.52;101114.78;10514389;28;20048;-67
2024/01/10 15:47:30;;;;;;;13.38;6.07;;;;;;;-2.45;45.50;101113.84;10515141;28;20056;-68
2024/01/10 15:52:33;;;;;;;11.32;4.93;;;;;;;-2.55;45.60;101115.41;10529456;28;20040;-68
2024/01/10 15:57:35;;;;;;;13.75;4.65;;;;;;;-2.62;45.75;101123.00;10512440;28;20108;-68
2024/01/10 16:02:40;;;;;;;13.43;5.22;;;;;;;-2.69;45.96;101134.88;10514254;28;20864;-68
2024/01/10 16:07:42;;;;;;;14.30;5.80;;;;;;;-2.78;46.16;101142.44;10514370;28;20113;-68
2024/01/10 16:12:44;;;;;;;12.13;5.22;;;;;;;-2.91;46.31;101143.97;10513212;28;20128;-68
2024/01/10 16:17:47;;;;;;;14.32;5.93;;;;;;;-3.01;46.58;101148.94;10514117;28;20047;-68
2024/01/10 16:22:49;;;;;;;13.20;5.32;;;;;;;-3.12;47.01;101151.31;10513086;28;20048;-68
2024/01/10 16:27:51;;;;;;;12.32;6.90;;;;;;;-3.17;47.28;101152.97;10513521;28;20101;-69
2024/01/10 16:32:54;;;;;;;14.77;6.03;;;;;;;-3.19;47.16;101141.84;10492316;28;20055;-68
2024/01/10 16:37:56;;;;;;;14.43;7.43;;;;;;;-3.33;47.84;101147.59;10513041;28;20047;-69
2024/01/10 16:42:58;;;;;;;22.33;9.07;;;;;;;-3.39;47.98;101160.28;10512653;28;20040;-69
2024/01/10 16:48:02;;;;;;;18.63;7.93;;;;;;;-3.43;48.12;101158.53;10496205;28;20075;-69
2024/01/10 16:53:05;;;;;;;20.52;8.77;;;;;;;-3.52;48.48;101160.91;10498312;28;20040;-68
2024/01/10 16:58:07;;;;;;;18.33;8.50;;;;;;;-3.61;48.79;101160.78;10521217;28;20052;-68
2024/01/10 17:03:10;;;;;;;14.65;6.38;;;;;;;-3.64;48.92;101166.69;10520991;28;20040;-69
2024/01/10 17:08:14;;;;;;;11.63;5.38;;;;;;;-3.63;48.99;101165.88;10521842;28;20040;-69
2024/01/10 17:13:20;;;;;;;13.93;6.07;;;;;;;-3.69;49.23;101168.31;10511821;28;20040;-69
2024/01/10 17:18:28;;;;;;;12.00;5.80;;;;;;;-3.77;49.38;101170.72;10518665;28;20052;-69
2024/01/10 17:23:56;;;;;;;16.95;6.30;;;;;;;-3.83;49.34;101162.09;10517871;28;20044;-68
2024/01/10 17:29:28;;;;;;;12.65;6.63;;;;;;;-3.91;49.84;101161.09;10528230;28;20044;-63
2024/01/10 17:34:37;;;;;;;21.52;8.25;;;;;;;-3.93;49.71;101168.72;10497632;28;20074;-63
2024/01/10 17:39:44;;;;;;;18.98;7.55;;;;;;;-4.00;49.97;101169.47;10533304;28;20052;-64
2024/01/10 17:44:51;;;;;;;18.90;6.88;;;;;;;-4.09;50.23;101174.41;10519152;28;20511;-63
2024/01/10 17:49:56;;;;;;;15.77;6.78;;;;;;;-4.11;50.37;101175.19;10500471;28;20052;-64
2024/01/10 17:55:04;;;;;;;19.60;6.80;;;;;;;-4.14;50.74;101172.59;10480599;28;20035;-64
2024/01/10 18:00:15;;;;;;;14.38;6.70;;;;;;;-4.21;50.75;101176.72;10500500;28;20059;-63
2024/01/10 18:05:23;;;;;;;14.65;7.55;;;;;;;-4.29;51.10;101185.91;10482245;28;20132;-63
2024/01/10 18:10:30;;;;;;;14.63;6.47;;;;;;;-4.30;51.18;101184.19;10496208;28;20056;-63
2024/01/10 18:15:35;;;;;;;14.60;6.50;;;;;;;-4.34;51.30;101191.78;10480331;28;20779;-64
2024/01/10 18:20:47;;;;;;;20.70;8.32;;;;;;;-4.41;51.58;101189.91;10517790;28;20536;-64
2024/01/10 18:25:50;;;;;;;16.42;7.60;;;;;;;-4.40;52.04;101184.00;10498485;28;20105;-63
2024/01/10 18:30:55;;;;;;;19.70;6.63;;;;;;;-4.43;51.80;101187.34;10515857;28;20213;-65
2024/01/10 18:35:57;;;;;;;15.77;7.03;;;;;;;-4.50;51.92;101193.13;10517025;28;20798;-64
2024/01/10 18:40:59;;;;;;;17.02;7.13;;;;;;;-4.52;51.87;101187.13;10508913;27;20050;-64
2024/01/10 18:46:02;;;;;;;14.20;6.63;;;;;;;-4.58;52.03;101187.00;10475474;28;20128;-64
2024/01/10 18:51:04;;;;;;;14.80;6.88;;;;;;;-4.64;52.26;101194.53;10474739;28;20106;-63
2024/01/10 18:56:06;;;;;;;17.52;6.25;;;;;;;-4.69;52.36;101199.53;10474351;28;20221;-64
2024/01/10 19:01:09;;;;;;;16.60;6.80;;;;;;;-4.73;52.60;101202.00;10477120;28;20182;-64
2024/01/10 19:06:11;;;;;;;16.60;6.88;;;;;;;-4.72;52.82;101203.72;10467891;28;20044;-63
2024/01/10 19:11:14;;;;;;;21.15;8.35;;;;;;;-4.78;52.81;101208.69;10476565;28;20477;-63
2024/01/10 19:16:16;;;;;;;15.55;6.25;;;;;;;-4.89;53.32;101215.25;10472297;28;20048;-64
2024/01/10 19:21:18;;;;;;;17.23;6.32;;;;;;;-4.96;53.30;101224.44;10476778;28;20131;-63
2024/01/10 19:26:24;;;;;;;11.70;5.60;;;;;;;-4.98;53.38;101227.78;10472273;28;20043;-64
2024/01/10 19:31:26;;;;;;;16.92;7.15;;;;;;;-4.99;53.34;101229.47;10473147;28;20521;-63
2024/01/10 19:36:28;;;;;;;18.52;7.10;;;;;;;-5.12;53.50;101239.34;10467039;28;20048;-62
2024/01/10 19:41:42;;;;;;;19.02;8.00;;;;;;;-5.13;53.54;101233.38;10608775;27;20243;-61
2024/01/10 19:46:46;;;;;;;16.55;7.38;;;;;;;-5.43;54.00;101237.72;10590414;27;20039;-63
2024/01/10 19:51:48;;;;;;;12.80;7.05;;;;;;;-5.36;54.14;101239.63;10604704;27;20341;-62
2024/01/10 19:56:50;;;;;;;23.55;7.68;;;;;;;-5.29;54.08;101238.06;10608000;27;20046;-61
2024/01/10 20:01:52;;;;;;;21.25;7.45;;;;;;;-5.30;54.27;101246.56;10580837;27;20043;-61
2024/01/10 20:06:54;;;;;;;16.33;6.35;;;;;;;-5.33;54.22;101247.34;10585843;27;20126;-61
2024/01/10 20:11:56;;;;;;;17.13;6.75;;;;;;;-5.40;54.83;101248.84;10605120;27;20038;-62
2024/01/10 20:16:58;;;;;;;18.42;6.32;;;;;;;-5.38;54.61;101247.22;10605914;27;20392;-62
2024/01/10 20:22:00;;;;;;;19.23;7.53;;;;;;;-5.46;55.01;101246.16;10598993;27;20402;-62
2024/01/10 20:27:03;;;;;;;13.48;6.97;;;;;;;-5.49;55.16;101256.28;10596412;27;20043;-62
2024/01/10 20:32:07;;;;;;;18.15;6.97;;;;;;;-5.50;54.94;101262.19;10603830;27;20047;-62
2024/01/10 20:37:09;;;;;;;18.48;7.60;;;;;;;-5.54;55.12;101265.50;10584284;27;20044;-61
2024/01/10 20:42:12;;;;;;;20.15;7.97;;;;;;;-5.60;55.12;101267.88;10577671;27;20116;-63
2024/01/10 20:47:17;;;;;;;17.98;6.15;;;;;;;-5.63;55.13;101260.16;10582974;27;20146;-62
2024/01/10 20:52:20;;;;;;;13.85;6.25;;;;;;;-5.67;55.36;101257.50;10575327;27;20977;-62
2024/01/10 20:57:22;;;;;;;18.17;8.10;;;;;;;-5.77;55.58;101261.50;10533402;27;20044;-63
2024/01/10 21:02:26;;;;;;;21.15;7.38;;;;;;;-5.79;55.64;101262.25;10574629;27;20046;-62
2024/01/10 21:07:28;;;;;;;13.85;7.30;;;;;;;-5.91;55.76;101255.13;10576464;27;20055;-62
2024/01/10 21:12:30;;;;;;;17.05;6.78;;;;;;;-5.86;55.94;101270.53;10573502;27;20039;-62
2024/01/10 21:17:32;;;;;;;13.45;7.13;;;;;;;-5.80;55.93;101260.53;10575661;27;20032;-62
2024/01/10 21:22:35;;;;;;;17.38;9.13;;;;;;;-5.75;55.90;101254.75;10565306;27;20539;-61
2024/01/10 21:27:37;;;;;;;22.23;7.20;;;;;;;-5.76;55.94;101247.91;10570320;27;20059;-61
2024/01/10 21:32:39;;;;;;;18.08;7.82;;;;;;;-5.73;56.00;101247.13;10570434;27;20039;-61
2024/01/10 21:37:41;;;;;;;15.18;7.53;;;;;;;-5.75;56.03;101242.00;10572906;27;20534;-62
2024/01/10 21:42:45;;;;;;;18.42;7.47;;;;;;;-5.77;56.04;101246.19;10574505;27;20032;-62
2024/01/10 21:47:47;;;;;;;14.48;7.15;;;;;;;-5.80;55.94;101248.66;10566632;27;20051;-62
2024/01/10 21:52:49;;;;;;;11.27;5.43;;;;;;;-5.84;56.15;101249.41;10571799;27;20505;-62
2024/01/10 21:57:52;;;;;;;20.90;7.97;;;;;;;-6.01;56.27;101263.34;10576663;27;20487;-62
2024/01/10 22:02:54;;;;;;;25.88;7.70;;;;;;;-6.04;56.60;101275.13;10568725;27;20050;-62
2024/01/10 22:07:58;;;;;;;24.67;8.00;;;;;;;-5.95;56.34;101260.97;10530634;27;20426;-62
2024/01/10 22:13:00;;;;;;;18.92;7.10;;;;;;;-5.89;56.29;101273.03;10543954;27;20043;-63
2024/01/10 22:18:04;;;;;;;19.17;6.85;;;;;;;-5.88;56.25;101270.50;10563068;27;20561;-62
2024/01/10 22:23:06;;;;;;;24.13;8.98;;;;;;;-5.91;56.08;101272.13;10547087;27;20805;-62
2024/01/10 22:28:08;;;;;;;16.83;7.05;;;;;;;-5.98;56.29;101268.53;10567958;27;20136;-62
2024/01/10 22:33:11;;;;;;;18.15;6.88;;;;;;;-5.97;56.33;101271.94;10568080;27;20457;-62
2024/01/10 22:38:13;;;;;;;13.43;6.82;;;;;;;-5.98;56.39;101270.22;10560907;27;20162;-62
2024/01/10 22:43:16;;;;;;;22.15;7.53;;;;;;;-5.97;56.57;101272.78;10561311;27;20044;-61
2024/01/10 22:48:18;;;;;;;17.15;6.95;;;;;;;-5.98;56.43;101278.72;10542074;28;20051;-61
2024/01/10 22:53:20;;;;;;;22.23;7.20;;;;;;;-5.99;56.30;101269.34;10563012;27;20055;-61
2024/01/10 22:58:22;;;;;;;14.18;7.32;;;;;;;-6.02;56.61;101269.25;10561086;27;20047;-62